Time;durP1;ratioP1;P1;durP2;ratioP2;P2;SDS_P1;SDS_P2;PMS_P1;PMS_P2;Temp;Humidity;BMP_temperature;BMP_pressure;BME280_temperature;BME280_humidity;BME280_pressure;Samples;Min_cycle;Max_cycle;Signal;HPM_P1;HPM_P2
2022/06/29 00:00:10;;;;;;;2.93;2.73;;;;;;;25.74;64.84;99578.41;4974237;28;20317;-73
2022/06/29 00:02:37;;;;;;;9.07;3.00;;;;;;;25.80;65.05;99582.69;4974899;28;20262;-73
2022/06/29 00:05:04;;;;;;;3.40;3.20;;;;;;;25.86;65.13;99586.94;4974917;28;20613;-73
2022/06/29 00:07:33;;;;;;;2.90;2.80;;;;;;;25.90;64.40;99577.91;4974946;28;20667;-73
2022/06/29 00:10:00;;;;;;;3.73;3.07;;;;;;;25.96;64.77;99581.41;4974979;28;20203;-73
2022/06/29 00:12:27;;;;;;;5.33;2.83;;;;;;;25.91;64.97;99575.97;4975850;28;20204;-73
2022/06/29 00:14:55;;;;;;;3.13;3.03;;;;;;;25.77;65.38;99573.19;4975189;28;20227;-73
2022/06/29 00:17:23;;;;;;;4.63;3.33;;;;;;;25.51;65.31;99562.94;4974907;28;20203;-74
2022/06/29 00:19:50;;;;;;;6.77;3.13;;;;;;;25.23;66.47;99572.72;4974477;28;20729;-73
2022/06/29 00:22:17;;;;;;;3.40;3.20;;;;;;;24.92;68.36;99568.75;4974282;28;20726;-74
2022/06/29 00:24:45;;;;;;;4.33;3.93;;;;;;;24.51;69.80;99565.53;4974749;28;20202;-74
2022/06/29 00:27:11;;;;;;;4.33;4.03;;;;;;;24.02;72.56;99562.09;4974782;28;20199;-74
2022/06/29 00:29:38;;;;;;;3.90;3.40;;;;;;;23.82;74.38;99556.81;4974351;28;20753;-75
2022/06/29 00:32:06;;;;;;;3.10;3.00;;;;;;;23.84;74.90;99553.78;4974952;28;20206;-75
2022/06/29 00:34:33;;;;;;;3.70;3.50;;;;;;;23.60;74.69;99545.50;4974756;28;20202;-75
2022/06/29 00:36:59;;;;;;;5.10;3.67;;;;;;;23.32;76.17;99540.75;4974278;28;20198;-75
2022/06/29 00:39:26;;;;;;;3.97;3.67;;;;;;;22.96;78.25;99541.97;4974206;28;20669;-74
2022/06/29 00:41:54;;;;;;;4.00;3.70;;;;;;;22.73;79.52;99531.69;4974459;28;20630;-75
2022/06/29 00:44:21;;;;;;;4.67;3.80;;;;;;;22.50;80.39;99543.09;4975150;28;20200;-73
2022/06/29 00:46:50;;;;;;;4.50;3.57;;;;;;;22.09;82.93;99546.84;4974856;28;20545;-74
2022/06/29 00:49:17;;;;;;;4.10;3.80;;;;;;;22.22;82.14;99543.59;4973936;28;20208;-74
2022/06/29 00:51:46;;;;;;;5.50;3.60;;;;;;;22.34;82.98;99538.72;4974038;28;20199;-73
2022/06/29 00:54:18;;;;;;;3.43;3.23;;;;;;;22.39;82.88;99546.88;4974062;28;20199;-74
2022/06/29 00:56:45;;;;;;;3.93;3.60;;;;;;;22.33;81.46;99547.94;4974293;28;20242;-74
2022/06/29 00:59:19;;;;;;;3.97;3.77;;;;;;;22.24;82.02;99544.16;4974746;28;20199;-74
2022/06/29 01:01:45;;;;;;;3.60;3.40;;;;;;;22.35;81.69;99537.66;4974120;28;20695;-74
2022/06/29 01:04:12;;;;;;;3.73;3.43;;;;;;;22.66;81.77;99533.06;4974171;28;20204;-74
2022/06/29 01:06:39;;;;;;;5.83;3.47;;;;;;;23.06;78.72;99536.50;4974113;28;20278;-74
2022/06/29 01:09:06;;;;;;;3.47;3.27;;;;;;;23.44;77.51;99538.53;4973988;28;20195;-73
2022/06/29 01:11:34;;;;;;;3.60;3.40;;;;;;;23.72;75.81;99535.13;4973354;28;20276;-73
2022/06/29 01:14:01;;;;;;;2.80;2.70;;;;;;;23.90;74.70;99537.22;4973622;28;20303;-73
2022/06/29 01:16:29;;;;;;;3.77;3.50;;;;;;;24.15;72.53;99537.06;4974109;28;20283;-73
2022/06/29 01:18:57;;;;;;;3.33;3.13;;;;;;;24.26;72.37;99538.59;4974940;28;20202;-72
2022/06/29 01:21:26;;;;;;;3.97;3.20;;;;;;;24.45;70.96;99544.13;4973198;28;20791;-73
2022/06/29 01:23:54;;;;;;;3.30;3.10;;;;;;;24.46;70.24;99541.16;4973748;28;20195;-73
2022/06/29 01:26:21;;;;;;;2.70;2.60;;;;;;;24.37;69.13;99542.03;4973695;28;20261;-74
2022/06/29 01:28:48;;;;;;;4.03;3.63;;;;;;;24.00;70.13;99533.63;4974206;28;20214;-75
2022/06/29 01:31:15;;;;;;;3.90;3.60;;;;;;;23.90;70.34;99539.94;4974260;28;20201;-75
2022/06/29 01:33:42;;;;;;;3.50;3.30;;;;;;;23.50;73.78;99529.31;4973436;28;20204;-76
2022/06/29 01:36:09;;;;;;;4.13;3.57;;;;;;;23.54;72.08;99529.56;4973347;28;20665;-76
2022/06/29 01:38:37;;;;;;;3.30;3.10;;;;;;;23.59;73.53;99524.91;4973352;28;20201;-75
2022/06/29 01:41:06;;;;;;;3.63;3.40;;;;;;;23.67;71.65;99518.91;4973423;28;20229;-75
2022/06/29 01:43:33;;;;;;;3.20;3.10;;;;;;;23.78;72.48;99523.19;4973493;28;20268;-75
2022/06/29 01:46:00;;;;;;;3.57;3.30;;;;;;;23.75;71.37;99512.88;4973764;28;20252;-75
2022/06/29 01:48:27;;;;;;;3.13;3.00;;;;;;;23.72;70.65;99518.88;4973448;28;20545;-75
2022/06/29 01:50:53;;;;;;;3.27;3.07;;;;;;;23.60;71.97;99515.69;4973327;28;20268;-75
2022/06/29 01:53:20;;;;;;;3.40;3.20;;;;;;;23.58;70.56;99517.06;4973441;28;20200;-75
2022/06/29 01:55:48;;;;;;;3.70;3.50;;;;;;;23.61;71.79;99517.28;4972868;28;20197;-75
2022/06/29 01:58:17;;;;;;;4.00;3.70;;;;;;;23.62;71.33;99513.50;4973280;28;20200;-75
2022/06/29 02:00:44;;;;;;;3.33;3.10;;;;;;;23.69;70.11;99530.28;4973299;28;20278;-74
2022/06/29 02:03:11;;;;;;;5.00;3.43;;;;;;;23.85;70.75;99523.66;4973346;28;20228;-74
2022/06/29 02:05:38;;;;;;;3.67;3.40;;;;;;;24.10;69.47;99523.50;4973338;28;20241;-74
2022/06/29 02:08:05;;;;;;;3.53;3.33;;;;;;;24.26;69.25;99529.66;4972996;28;20729;-74
2022/06/29 02:10:32;;;;;;;3.20;3.10;;;;;;;24.45;69.02;99528.66;4973210;28;20202;-74
2022/06/29 02:12:59;;;;;;;4.33;3.27;;;;;;;24.55;68.08;99530.47;4974159;28;20194;-74
2022/06/29 02:15:28;;;;;;;3.87;3.30;;;;;;;24.64;67.10;99529.63;4973657;28;20230;-74
2022/06/29 02:17:54;;;;;;;4.57;3.63;;;;;;;24.60;67.06;99536.72;4972934;28;20638;-74
2022/06/29 02:20:21;;;;;;;3.80;3.37;;;;;;;24.61;67.33;99532.91;4972874;28;20605;-75
2022/06/29 02:22:48;;;;;;;4.07;3.67;;;;;;;24.55;67.04;99533.19;4973883;28;20205;-73
2022/06/29 02:25:15;;;;;;;4.03;3.53;;;;;;;24.38;67.19;99524.66;4977013;28;20202;-72
2022/06/29 02:27:42;;;;;;;3.73;3.50;;;;;;;24.28;68.44;99517.41;4976985;28;20264;-72
2022/06/29 02:30:11;;;;;;;4.33;3.90;;;;;;;24.22;68.25;99513.09;4976774;28;20202;-73
2022/06/29 02:35:23;;;;;;;4.33;3.93;;;;;;;24.24;68.13;99513.66;4976890;28;20265;-73
2022/06/29 02:37:50;;;;;;;3.93;3.70;;;;;;;24.15;68.70;99507.22;4976391;28;20638;-73
2022/06/29 02:40:16;;;;;;;4.97;4.13;;;;;;;24.22;68.84;99513.09;4976494;28;20232;-72
2022/06/29 02:42:43;;;;;;;4.53;3.67;;;;;;;24.19;68.30;99508.25;4976102;28;20669;-74
2022/06/29 02:45:10;;;;;;;3.70;3.40;;;;;;;24.25;68.94;99512.53;4975731;28;20326;-71
2022/06/29 02:47:39;;;;;;;5.63;3.80;;;;;;;24.26;67.98;99507.94;4975833;28;20629;-74
2022/06/29 02:50:06;;;;;;;4.23;3.83;;;;;;;24.32;67.41;99509.50;4976009;28;20260;-73
2022/06/29 02:52:33;;;;;;;5.40;3.30;;;;;;;24.20;68.42;99504.44;4976031;28;20670;-73
2022/06/29 02:55:01;;;;;;;3.80;3.60;;;;;;;24.21;68.65;99511.50;4976203;28;20249;-74
2022/06/29 02:57:28;;;;;;;4.20;3.87;;;;;;;24.12;69.08;99506.94;4975989;28;20665;-73
2022/06/29 02:59:54;;;;;;;4.90;3.27;;;;;;;24.05;69.05;99496.41;4976378;28;20259;-73
2022/06/29 03:02:21;;;;;;;4.40;3.30;;;;;;;23.98;68.27;99514.91;4976561;28;20245;-73
2022/06/29 03:04:49;;;;;;;3.63;3.43;;;;;;;24.11;67.87;99510.75;4975961;28;20202;-73
2022/06/29 03:07:16;;;;;;;3.20;3.00;;;;;;;24.22;68.45;99513.09;4975677;28;20264;-72
2022/06/29 03:09:42;;;;;;;3.70;3.40;;;;;;;24.26;68.29;99516.88;4976053;28;20205;-73
2022/06/29 03:12:09;;;;;;;3.80;3.60;;;;;;;24.29;66.85;99516.31;4976317;28;20612;-72
2022/06/29 03:14:36;;;;;;;3.80;3.60;;;;;;;24.31;67.53;99511.44;4976793;28;20291;-72
2022/06/29 03:17:03;;;;;;;4.37;3.97;;;;;;;24.59;66.46;99523.38;4975997;28;20670;-72
2022/06/29 03:19:30;;;;;;;3.77;3.60;;;;;;;24.56;66.99;99513.91;4975848;28;20671;-72
2022/06/29 03:21:58;;;;;;;6.77;3.83;;;;;;;24.56;66.23;99522.06;4976165;28;20225;-72
2022/06/29 03:24:25;;;;;;;3.60;3.40;;;;;;;24.71;66.63;99521.13;4975163;28;20254;-74
2022/06/29 03:26:52;;;;;;;4.17;3.27;;;;;;;24.68;66.90;99517.09;4975405;28;20202;-74
2022/06/29 03:29:18;;;;;;;3.20;3.00;;;;;;;24.79;66.32;99512.34;4976048;28;20205;-74
2022/06/29 03:31:45;;;;;;;5.00;3.40;;;;;;;24.77;66.49;99507.19;4975502;28;20202;-74
2022/06/29 03:34:12;;;;;;;4.40;4.00;;;;;;;24.82;66.45;99512.56;4975355;28;20287;-74
2022/06/29 03:36:39;;;;;;;5.57;4.07;;;;;;;24.81;65.70;99505.53;4975686;28;20254;-73
2022/06/29 03:39:07;;;;;;;4.07;3.63;;;;;;;24.91;65.96;99502.69;4975353;28;20731;-73
2022/06/29 03:41:34;;;;;;;4.43;4.13;;;;;;;24.93;65.41;99503.22;4976257;28;20239;-73
2022/06/29 03:44:00;;;;;;;9.10;4.60;;;;;;;24.90;65.84;99508.41;4975223;28;20733;-73
2022/06/29 03:46:27;;;;;;;6.83;4.03;;;;;;;24.72;66.96;99501.81;4975430;28;20262;-73
2022/06/29 03:48:55;;;;;;;5.93;5.27;;;;;;;24.75;66.55;99495.00;4976235;28;20203;-73
2022/06/29 03:51:21;;;;;;;8.80;4.30;;;;;;;24.85;65.89;99492.97;4975062;28;20210;-73
2022/06/29 03:53:48;;;;;;;7.93;5.03;;;;;;;24.97;65.45;99487.13;4975291;28;20255;-74
2022/06/29 03:56:16;;;;;;;6.07;4.40;;;;;;;24.91;65.94;99497.25;4974641;28;20256;-73
2022/06/29 03:58:43;;;;;;;6.13;3.77;;;;;;;25.05;65.68;99494.66;4974798;28;20194;-73
2022/06/29 04:01:10;;;;;;;5.50;4.20;;;;;;;25.14;64.43;99500.28;4974453;28;20226;-73
2022/06/29 04:03:36;;;;;;;7.87;4.23;;;;;;;25.30;65.00;99494.38;4974888;28;20203;-73
2022/06/29 04:06:03;;;;;;;4.87;4.13;;;;;;;25.97;62.95;99513.03;4974948;28;20266;-73
2022/06/29 04:08:30;;;;;;;6.43;4.10;;;;;;;26.86;59.29;99509.09;4975000;28;20691;-74
2022/06/29 04:10:57;;;;;;;6.77;3.70;;;;;;;27.70;55.95;99511.16;4975122;28;20203;-74
2022/06/29 04:13:25;;;;;;;4.70;3.33;;;;;;;28.52;53.85;99527.00;4974608;28;20246;-74
2022/06/29 04:15:52;;;;;;;4.93;3.97;;;;;;;29.25;50.87;99523.66;4974733;28;20196;-74
2022/06/29 04:18:18;;;;;;;5.20;3.83;;;;;;;29.93;49.36;99529.28;4974627;28;20191;-72
2022/06/29 04:23:29;;;;;;;3.70;3.50;;;;;;;31.03;45.80;99524.78;4974405;28;20203;-74
2022/06/29 04:25:56;;;;;;;3.47;3.17;;;;;;;31.39;44.47;99501.22;4975119;28;20195;-74
2022/06/29 04:28:23;;;;;;;5.97;4.07;;;;;;;31.79;43.01;99509.84;4974758;28;20199;-74
2022/06/29 04:30:51;;;;;;;6.67;3.73;;;;;;;32.15;42.06;99508.09;4974333;28;20207;-74
2022/06/29 04:33:17;;;;;;;11.57;4.07;;;;;;;32.30;42.07;99507.50;4974069;28;20630;-74
2022/06/29 04:35:44;;;;;;;3.67;3.40;;;;;;;32.56;41.27;99501.72;4974614;28;20280;-76
2022/06/29 04:38:11;;;;;;;4.73;3.10;;;;;;;32.93;40.04;99506.19;4974405;28;20195;-73
2022/06/29 04:40:37;;;;;;;3.93;3.50;;;;;;;33.40;39.17;99499.13;4974315;28;20615;-73
2022/06/29 04:43:04;;;;;;;5.83;3.57;;;;;;;33.96;38.08;99506.38;4973875;28;20287;-73
2022/06/29 04:48:16;;;;;;;3.37;3.17;;;;;;;34.27;37.32;99519.47;4973998;28;20731;-73
2022/06/29 04:50:43;;;;;;;3.30;3.00;;;;;;;34.66;35.95;99524.91;4974196;28;20273;-73
2022/06/29 04:53:10;;;;;;;3.03;2.80;;;;;;;34.52;36.35;99518.22;4974215;28;20242;-74
2022/06/29 04:55:37;;;;;;;10.60;4.97;;;;;;;35.04;35.40;99518.84;4974644;28;20258;-74
2022/06/29 04:58:03;;;;;;;4.23;3.20;;;;;;;35.00;35.29;99517.94;4974584;28;20254;-74
2022/06/29 05:00:30;;;;;;;3.35;2.75;;;;;;;35.26;35.21;99526.47;4973376;28;20660;-75
2022/06/29 05:02:57;;;;;;;3.55;3.08;;;;;;;35.32;34.94;99525.09;4974049;28;20219;-74
2022/06/29 05:05:25;;;;;;;3.58;2.95;;;;;;;35.16;34.96;99527.84;4973274;28;20258;-75
2022/06/29 05:07:51;;;;;;;7.15;3.13;;;;;;;35.24;34.62;99523.28;4973594;28;20660;-73
2022/06/29 05:10:18;;;;;;;6.32;3.22;;;;;;;35.46;34.32;99514.38;4974014;28;20191;-73
2022/06/29 05:12:45;;;;;;;6.15;2.85;;;;;;;35.68;33.52;99510.94;4973842;28;20258;-74
2022/06/29 05:15:12;;;;;;;3.80;3.28;;;;;;;35.85;33.29;99507.78;4973625;28;20717;-74
2022/06/29 05:17:39;;;;;;;3.63;2.97;;;;;;;35.75;33.96;99517.44;4974009;28;20198;-74
2022/06/29 05:20:07;;;;;;;5.35;3.13;;;;;;;35.60;33.56;99509.19;4973655;28;20199;-73
2022/06/29 05:22:36;;;;;;;3.65;3.35;;;;;;;35.63;33.98;99513.97;4973923;28;20223;-74
2022/06/29 05:25:03;;;;;;;3.60;3.28;;;;;;;35.84;34.13;99520.81;4973645;28;20202;-73
2022/06/29 05:27:30;;;;;;;4.18;3.10;;;;;;;36.01;33.82;99508.53;4973355;28;20254;-72
2022/06/29 05:29:57;;;;;;;2.72;2.60;;;;;;;36.03;33.21;99506.19;4973368;28;20199;-74
2022/06/29 05:32:24;;;;;;;4.57;2.95;;;;;;;36.12;33.88;99512.28;4977162;28;20198;-73
2022/06/29 05:34:50;;;;;;;5.97;2.88;;;;;;;35.90;34.44;99513.03;4981496;28;20250;-73
2022/06/29 05:37:18;;;;;;;6.25;2.78;;;;;;;35.93;33.00;99518.63;4984393;28;20644;-73
2022/06/29 05:39:46;;;;;;;4.18;3.03;;;;;;;35.86;34.09;99514.91;4992790;28;20226;-73
2022/06/29 05:42:13;;;;;;;2.90;2.70;;;;;;;35.99;33.10;99510.84;4975985;28;20727;-71
2022/06/29 05:44:40;;;;;;;2.90;2.70;;;;;;;35.79;33.89;99506.47;4973448;28;20195;-72
2022/06/29 05:47:08;;;;;;;5.57;3.50;;;;;;;35.97;33.47;99507.66;4974124;28;20258;-72
2022/06/29 05:49:35;;;;;;;2.80;2.60;;;;;;;35.79;33.65;99510.03;4980260;28;20253;-71
2022/06/29 05:52:02;;;;;;;6.65;3.30;;;;;;;35.99;33.42;99517.19;4993343;28;20202;-72
2022/06/29 05:54:28;;;;;;;5.07;3.30;;;;;;;35.91;33.40;99525.69;4992606;28;20194;-71
2022/06/29 05:56:56;;;;;;;3.75;3.50;;;;;;;35.96;33.11;99519.84;4992436;28;20202;-74
2022/06/29 05:59:23;;;;;;;5.28;3.08;;;;;;;36.08;33.06;99514.19;4996179;28;20675;-71
2022/06/29 06:01:50;;;;;;;3.65;3.15;;;;;;;35.75;33.71;99511.09;4996323;28;20229;-71
2022/06/29 06:04:17;;;;;;;7.75;2.72;;;;;;;35.90;32.95;99507.50;4996231;28;20194;-71
2022/06/29 06:06:44;;;;;;;4.50;3.42;;;;;;;35.75;33.21;99511.09;4988748;28;20261;-71
2022/06/29 06:09:10;;;;;;;4.95;3.25;;;;;;;35.81;32.57;99513.22;4976765;28;20199;-71
2022/06/29 06:11:37;;;;;;;9.57;3.30;;;;;;;35.98;32.38;99521.13;4977074;28;20266;-72
2022/06/29 06:14:05;;;;;;;3.72;2.72;;;;;;;36.16;32.31;99511.22;4976818;28;20227;-72
2022/06/29 06:16:32;;;;;;;4.05;2.90;;;;;;;36.08;32.96;99509.47;4977014;28;20203;-72
2022/06/29 06:18:59;;;;;;;3.85;3.00;;;;;;;36.14;33.22;99504.44;4976746;28;20250;-73
2022/06/29 06:21:25;;;;;;;5.53;3.55;;;;;;;36.10;32.60;99506.34;4977159;28;20289;-73
2022/06/29 06:23:52;;;;;;;6.05;2.80;;;;;;;35.88;33.30;99505.09;4977217;28;20195;-73
2022/06/29 06:26:19;;;;;;;3.13;2.83;;;;;;;35.90;33.37;99511.06;4975642;28;20195;-69
2022/06/29 06:28:46;;;;;;;5.50;2.58;;;;;;;35.92;33.03;99513.44;4975167;28;20207;-68
2022/06/29 06:31:14;;;;;;;3.28;3.08;;;;;;;35.98;32.33;99510.06;4975782;28;20195;-68
2022/06/29 06:33:41;;;;;;;3.22;2.80;;;;;;;35.86;33.13;99512.97;4975423;28;20195;-68
2022/06/29 06:36:08;;;;;;;2.95;2.70;;;;;;;35.32;33.74;99514.03;4975381;28;20667;-66
2022/06/29 06:38:34;;;;;;;8.18;3.47;;;;;;;35.25;33.37;99516.59;4976302;28;20667;-67
2022/06/29 06:43:45;;;;;;;5.57;3.10;;;;;;;35.25;33.37;99519.38;4995892;28;20257;-68
2022/06/29 06:46:12;;;;;;;7.13;3.15;;;;;;;35.19;33.63;99515.28;4995649;28;20203;-68
2022/06/29 06:48:40;;;;;;;4.05;2.85;;;;;;;35.29;33.99;99525.81;4995558;28;20257;-67
2022/06/29 06:51:06;;;;;;;8.20;3.30;;;;;;;35.36;34.07;99514.94;4977714;28;20202;-67
2022/06/29 06:53:33;;;;;;;6.50;3.15;;;;;;;35.57;33.67;99512.66;4976033;28;20242;-68
2022/06/29 06:56:00;;;;;;;4.80;3.35;;;;;;;35.72;33.01;99517.34;4976854;28;20262;-69
2022/06/29 06:58:27;;;;;;;4.13;3.33;;;;;;;35.73;33.25;99502.34;4975418;28;20254;-69
2022/06/29 07:00:54;;;;;;;3.22;3.03;;;;;;;36.23;31.56;99519.69;4974727;28;20195;-67
2022/06/29 07:03:20;;;;;;;4.35;2.45;;;;;;;36.51;30.26;99516.69;4976055;28;20274;-67
2022/06/29 07:05:49;;;;;;;4.80;2.70;;;;;;;36.55;31.02;99518.31;4976206;28;20263;-67
2022/06/29 07:08:15;;;;;;;3.38;2.35;;;;;;;36.59;30.54;99524.72;4975756;28;20324;-67
2022/06/29 07:10:42;;;;;;;3.00;2.80;;;;;;;36.79;30.49;99518.00;4975109;28;20217;-67
2022/06/29 07:13:09;;;;;;;3.38;3.17;;;;;;;37.02;29.51;99518.00;4975586;28;20742;-67
2022/06/29 07:15:35;;;;;;;4.07;2.72;;;;;;;36.90;29.91;99515.44;4975977;28;20207;-68
2022/06/29 07:18:02;;;;;;;3.83;2.67;;;;;;;36.84;29.69;99517.72;4975682;28;20198;-67
2022/06/29 07:20:30;;;;;;;10.52;2.47;;;;;;;36.60;29.95;99520.81;4975974;28;20203;-67
2022/06/29 07:22:59;;;;;;;4.25;2.55;;;;;;;36.49;30.30;99519.00;4975550;28;20715;-69
2022/06/29 07:25:25;;;;;;;5.07;2.40;;;;;;;36.10;31.13;99517.41;4975326;28;20711;-67
2022/06/29 07:27:52;;;;;;;2.83;2.42;;;;;;;36.49;30.91;99516.22;4975399;28;20204;-68
2022/06/29 07:30:19;;;;;;;4.68;3.28;;;;;;;36.66;30.33;99518.56;4975481;28;20196;-67
2022/06/29 07:32:45;;;;;;;6.93;2.38;;;;;;;36.75;30.23;99510.84;4975714;28;20265;-67
2022/06/29 07:35:12;;;;;;;2.72;2.50;;;;;;;36.88;29.58;99518.59;4975650;28;20583;-68
2022/06/29 07:37:39;;;;;;;3.88;2.90;;;;;;;36.99;29.83;99516.00;4975221;28;20667;-68
2022/06/29 07:40:08;;;;;;;3.42;3.10;;;;;;;37.17;29.97;99512.38;4975385;28;20195;-68
2022/06/29 07:42:36;;;;;;;5.32;2.67;;;;;;;37.39;29.17;99521.81;4974994;28;20703;-68
2022/06/29 07:45:03;;;;;;;9.23;3.38;;;;;;;37.42;28.81;99518.31;4975207;28;20210;-67
2022/06/29 07:47:30;;;;;;;2.67;2.47;;;;;;;36.90;28.80;99512.66;4975379;28;20199;-67
2022/06/29 07:49:58;;;;;;;5.38;3.10;;;;;;;36.63;29.76;99508.19;4975083;28;20282;-67
2022/06/29 07:52:24;;;;;;;3.85;3.17;;;;;;;36.74;30.31;99514.75;4975005;28;20195;-67
2022/06/29 07:54:52;;;;;;;7.13;2.92;;;;;;;36.74;29.29;99509.22;4975307;28;20199;-68
2022/06/29 07:57:20;;;;;;;3.50;2.70;;;;;;;36.82;28.66;99510.94;4975266;28;20195;-67
2022/06/29 07:59:47;;;;;;;2.42;2.30;;;;;;;36.95;29.21;99499.31;4974952;28;20232;-67
2022/06/29 08:02:14;;;;;;;6.78;2.78;;;;;;;37.08;29.02;99509.03;4974681;28;20621;-68
2022/06/29 08:04:40;;;;;;;11.10;3.50;;;;;;;37.03;28.58;99508.56;4974984;28;20199;-68
2022/06/29 08:07:07;;;;;;;3.50;2.70;;;;;;;36.95;26.84;99501.28;4974997;28;20258;-68
2022/06/29 08:09:34;;;;;;;4.82;2.72;;;;;;;37.14;27.49;99509.53;4974846;28;20246;-67
2022/06/29 08:12:01;;;;;;;5.20;2.67;;;;;;;37.36;28.10;99508.72;4974958;28;20203;-68
2022/06/29 08:14:29;;;;;;;5.35;2.80;;;;;;;37.65;27.87;99504.41;4975008;28;20688;-68
2022/06/29 08:16:56;;;;;;;3.00;2.72;;;;;;;37.84;27.34;99507.84;4974712;28;20191;-67
2022/06/29 08:19:22;;;;;;;8.05;3.45;;;;;;;37.77;27.18;99510.53;4975130;28;20332;-68
2022/06/29 08:21:49;;;;;;;2.92;2.58;;;;;;;37.69;26.29;99503.28;4974182;28;20246;-68
2022/06/29 08:24:16;;;;;;;14.07;3.80;;;;;;;37.71;27.21;99503.69;4974416;28;20195;-68
2022/06/29 08:26:43;;;;;;;4.18;2.60;;;;;;;37.81;27.06;99508.63;4974081;28;20286;-69
2022/06/29 08:29:10;;;;;;;4.55;2.78;;;;;;;37.95;26.29;99507.97;4974467;28;20290;-68
2022/06/29 08:31:39;;;;;;;4.43;2.22;;;;;;;38.11;26.14;99511.38;4990292;28;20293;-68
2022/06/29 08:34:06;;;;;;;2.85;2.58;;;;;;;38.20;26.02;99509.16;4993586;28;20670;-70
2022/06/29 08:36:32;;;;;;;2.78;2.47;;;;;;;38.19;26.43;99513.88;4993710;28;20195;-71
2022/06/29 08:39:00;;;;;;;4.05;2.72;;;;;;;38.31;25.36;99510.03;4994290;28;20252;-72
2022/06/29 08:41:27;;;;;;;3.88;3.05;;;;;;;38.33;25.02;99516.03;4981306;28;20213;-70
2022/06/29 08:43:55;;;;;;;5.57;2.92;;;;;;;38.30;25.08;99511.22;4974219;28;20219;-70
2022/06/29 08:46:21;;;;;;;3.13;2.58;;;;;;;38.34;25.23;99512.88;4974226;28;20761;-70
2022/06/29 08:48:50;;;;;;;3.45;3.20;;;;;;;38.04;25.08;99511.31;4973767;28;20195;-71
2022/06/29 08:51:20;;;;;;;3.90;2.78;;;;;;;37.62;25.62;99519.81;4972185;28;20572;-70
2022/06/29 08:53:47;;;;;;;3.33;3.00;;;;;;;37.39;26.11;99516.28;4973208;28;20290;-71
2022/06/29 08:56:15;;;;;;;3.13;2.90;;;;;;;37.46;25.74;99512.81;4972953;28;20734;-72
2022/06/29 08:58:42;;;;;;;2.90;2.63;;;;;;;36.96;26.07;99511.19;4972876;28;20200;-71
2022/06/29 09:01:09;;;;;;;2.92;2.65;;;;;;;36.80;26.07;99521.59;4974156;28;20227;-71
2022/06/29 09:03:35;;;;;;;3.80;3.15;;;;;;;36.66;26.80;99524.09;4973977;28;20306;-71
2022/06/29 09:06:06;;;;;;;5.38;2.83;;;;;;;36.52;27.34;99523.81;4973710;28;20254;-63
2022/06/29 09:08:33;;;;;;;6.15;2.95;;;;;;;36.43;27.23;99520.47;4973652;28;20663;-65
2022/06/29 09:11:21;;;;;;;3.47;3.15;;;;;;;36.38;27.61;99515.25;4973153;28;20201;-63
2022/06/29 09:13:48;;;;;;;6.40;3.25;;;;;;;36.54;28.80;99513.97;4974045;28;20321;-64
2022/06/29 09:16:14;;;;;;;5.22;3.38;;;;;;;36.72;28.14;99515.13;4973472;28;20699;-64
2022/06/29 09:18:43;;;;;;;4.38;3.53;;;;;;;36.71;26.51;99518.28;4973448;28;20195;-64
2022/06/29 09:21:11;;;;;;;6.13;2.95;;;;;;;36.62;24.82;99514.91;4973306;28;20200;-64
2022/06/29 09:23:38;;;;;;;4.53;2.72;;;;;;;36.48;24.90;99518.22;4973219;28;20293;-64
2022/06/29 09:26:05;;;;;;;3.08;2.83;;;;;;;36.60;24.69;99520.81;4973317;28;20191;-64
2022/06/29 09:28:34;;;;;;;4.43;2.47;;;;;;;36.64;24.03;99531.94;4973744;28;20199;-63
2022/06/29 09:31:01;;;;;;;2.25;2.10;;;;;;;36.22;23.63;99520.06;4979771;28;20205;-64
2022/06/29 09:33:29;;;;;;;2.95;2.58;;;;;;;36.42;24.35;99524.41;4992065;28;20194;-64
2022/06/29 09:36:08;;;;;;;2.72;2.53;;;;;;;36.70;24.20;99523.00;4992444;28;20195;-64
2022/06/29 09:38:37;;;;;;;4.65;2.30;;;;;;;36.18;24.26;99519.16;4992574;28;20690;-64
2022/06/29 09:41:06;;;;;;;3.20;2.25;;;;;;;35.39;25.98;99519.75;4983646;28;20207;-65
2022/06/29 09:43:35;;;;;;;5.93;2.80;;;;;;;35.67;24.08;99525.91;4972951;28;20318;-65
2022/06/29 09:46:02;;;;;;;6.43;2.15;;;;;;;35.56;23.59;99527.66;4972853;28;20742;-65
2022/06/29 09:48:31;;;;;;;2.25;2.05;;;;;;;35.83;22.79;99523.94;4973849;28;20624;-64
2022/06/29 09:50:58;;;;;;;2.50;2.30;;;;;;;36.01;22.60;99519.59;4973189;28;20191;-64
2022/06/29 09:53:28;;;;;;;3.55;2.60;;;;;;;36.04;24.48;99513.31;4973209;28;20207;-65
2022/06/29 09:55:57;;;;;;;6.32;2.50;;;;;;;36.03;23.79;99506.19;4973750;28;20266;-64
2022/06/29 09:58:37;;;;;;;6.20;2.40;;;;;;;35.38;25.35;99501.53;4981386;28;20266;-63
2022/06/29 10:03:53;;;;;;;2.95;2.25;;;;;;;35.69;25.61;99501.47;4972962;28;20206;-65
2022/06/29 10:06:22;;;;;;;2.97;2.65;;;;;;;35.80;25.99;99506.09;4982880;28;20201;-65
2022/06/29 10:08:49;;;;;;;4.20;2.60;;;;;;;36.09;25.15;99511.06;4992312;28;20686;-63
2022/06/29 10:14:15;;;;;;;4.57;2.42;;;;;;;36.66;24.76;99501.94;4988424;28;20626;-64
2022/06/29 10:16:50;;;;;;;3.50;2.35;;;;;;;36.62;24.92;99506.63;4973185;28;20212;-63
2022/06/29 10:19:33;;;;;;;7.07;2.53;;;;;;;36.61;25.65;99511.34;4973688;28;20568;-64
2022/06/29 10:22:01;;;;;;;6.07;2.50;;;;;;;36.53;25.62;99511.56;4973018;28;20210;-65
2022/06/29 10:24:28;;;;;;;3.05;2.60;;;;;;;36.47;24.41;99510.28;4973677;28;20233;-64
2022/06/29 10:26:56;;;;;;;2.65;2.45;;;;;;;36.56;25.04;99508.06;4972651;28;20313;-65
2022/06/29 10:29:37;;;;;;;2.67;2.47;;;;;;;36.16;24.82;99502.09;4973140;28;20602;-65
2022/06/29 10:32:17;;;;;;;2.75;2.53;;;;;;;36.10;25.11;99500.81;4984103;28;20651;-65
2022/06/29 10:37:31;;;;;;;4.95;2.17;;;;;;;36.16;24.98;99494.63;4991883;28;20198;-65
2022/06/29 10:40:04;;;;;;;3.03;2.63;;;;;;;35.99;25.81;99489.53;4991699;28;20294;-65
2022/06/29 10:45:33;;;;;;;3.20;2.78;;;;;;;35.51;26.52;99494.72;4976157;28;20255;-65
2022/06/29 10:48:17;;;;;;;2.97;2.67;;;;;;;35.61;27.09;99483.13;4976473;28;20187;-65
2022/06/29 10:50:45;;;;;;;2.92;2.58;;;;;;;35.67;27.05;99485.25;4978997;28;20254;-66
2022/06/29 10:53:14;;;;;;;3.20;2.95;;;;;;;35.76;26.06;99485.09;4995542;28;20246;-65
2022/06/29 10:55:42;;;;;;;4.07;2.50;;;;;;;35.56;26.74;99483.41;4995390;28;20586;-64
2022/06/29 10:58:11;;;;;;;3.35;2.92;;;;;;;35.52;27.30;99474.25;4995454;28;20743;-65
2022/06/29 11:00:40;;;;;;;3.40;2.67;;;;;;;35.25;26.91;99481.50;4978269;28;20668;-65
2022/06/29 11:03:10;;;;;;;3.10;2.72;;;;;;;35.29;26.82;99482.41;4987902;28;20223;-65
2022/06/29 11:05:37;;;;;;;3.95;2.60;;;;;;;35.24;26.65;99479.09;4983001;28;20230;-65
2022/06/29 11:13:33;;;;;;;3.25;2.95;;;;;;;34.87;27.04;99475.03;4972273;28;20241;-66
2022/06/29 11:16:01;;;;;;;5.07;2.90;;;;;;;35.00;26.92;99471.00;4980797;28;20199;-66
2022/06/29 11:18:29;;;;;;;4.65;2.90;;;;;;;35.08;27.58;99458.97;4986427;28;20674;-65
2022/06/29 11:21:02;;;;;;;2.67;2.30;;;;;;;35.12;26.71;99468.16;4995474;28;20651;-64
2022/06/29 11:23:29;;;;;;;6.72;2.28;;;;;;;35.03;27.22;99468.31;4995193;28;20281;-64
2022/06/29 11:25:57;;;;;;;2.75;2.55;;;;;;;35.22;26.58;99464.81;4974751;28;20682;-67
2022/06/29 11:28:25;;;;;;;4.93;2.67;;;;;;;34.80;27.08;99469.31;4975478;28;20247;-65
2022/06/29 11:31:04;;;;;;;2.47;2.30;;;;;;;34.89;27.05;99467.16;4990760;28;20207;-64
2022/06/29 11:33:32;;;;;;;3.25;2.90;;;;;;;34.67;27.30;99465.81;4994396;28;20264;-64
2022/06/29 11:36:04;;;;;;;2.95;2.70;;;;;;;34.83;27.95;99468.59;4991013;28;20203;-65
2022/06/29 11:38:31;;;;;;;2.58;2.47;;;;;;;35.12;26.38;99465.38;4984691;28;20202;-64
2022/06/29 11:40:58;;;;;;;2.88;2.58;;;;;;;35.06;26.89;99473.13;4981397;28;20585;-64
2022/06/29 11:43:25;;;;;;;4.85;2.42;;;;;;;35.02;26.65;99457.66;4974389;28;20715;-67
2022/06/29 11:45:53;;;;;;;3.33;2.83;;;;;;;34.90;26.87;99463.28;4994528;28;20198;-66
2022/06/29 11:48:22;;;;;;;2.92;2.20;;;;;;;34.71;27.15;99460.38;4983466;28;20199;-65
2022/06/29 11:50:51;;;;;;;2.92;2.67;;;;;;;34.51;27.62;99458.66;4975086;28;20195;-64
2022/06/29 11:53:39;;;;;;;3.17;2.60;;;;;;;34.64;27.31;99454.66;4975284;28;20675;-66
2022/06/29 11:56:10;;;;;;;2.53;2.35;;;;;;;34.68;27.45;99455.56;4973933;28;20746;-66
2022/06/29 11:58:39;;;;;;;2.45;2.25;;;;;;;34.73;27.56;99449.78;4982422;28;20618;-65
2022/06/29 12:01:08;;;;;;;2.80;2.22;;;;;;;34.82;27.01;99455.97;4976556;28;20199;-65
2022/06/29 12:03:36;;;;;;;3.10;2.42;;;;;;;34.65;27.83;99442.47;4977244;28;20245;-65